createdAt,value
2018-06-29T00:00:54.359Z,19.40
2018-06-29T00:03:22.639Z,19.30
2018-06-29T00:05:50.907Z,19.30
2018-06-29T00:10:47.187Z,19.30
2018-06-29T00:13:15.472Z,19.20
2018-06-29T00:15:43.755Z,19.20
2018-06-29T00:18:12.092Z,19.20
2018-06-29T00:20:40.313Z,19.20
2018-06-29T00:23:08.579Z,19.20
2018-06-29T00:28:04.907Z,19.20
2018-06-29T00:30:33.249Z,19.20
2018-06-29T00:33:01.519Z,19.20
2018-06-29T00:35:29.797Z,19.20
2018-06-29T00:37:58.087Z,19.20
2018-06-29T00:40:26.405Z,19.20
2018-06-29T00:42:54.659Z,19.20
2018-06-29T00:45:22.927Z,19.20
2018-06-29T00:47:51.201Z,19.10
2018-06-29T00:50:19.462Z,19.00
2018-06-29T00:52:47.743Z,19.00
2018-06-29T00:55:16.019Z,18.90
2018-06-29T00:57:44.331Z,18.80
2018-06-29T01:00:12.624Z,18.80
2018-06-29T01:02:40.927Z,18.70
2018-06-29T01:05:09.219Z,18.60
2018-06-29T01:12:33.536Z,18.40
2018-06-29T01:15:01.801Z,18.30
2018-06-29T01:17:30.115Z,18.20
2018-06-29T01:19:58.497Z,18.10
2018-06-29T01:22:26.765Z,18.10
2018-06-29T01:24:55.173Z,18.00
2018-06-29T01:27:23.443Z,18.10
2018-06-29T01:29:51.767Z,18.00
2018-06-29T01:32:20.045Z,18.00
2018-06-29T01:34:48.345Z,18.10
2018-06-29T01:39:44.603Z,18.20
2018-06-29T01:44:46.159Z,18.30
2018-06-29T01:47:14.463Z,18.40
2018-06-29T01:49:42.727Z,18.40
2018-06-29T01:52:11.039Z,18.40
2018-06-29T01:54:39.269Z,18.50
2018-06-29T01:57:07.630Z,18.40
2018-06-29T01:59:35.903Z,18.50
2018-06-29T02:02:05.082Z,18.60
2018-06-29T02:07:01.503Z,18.50
2018-06-29T02:09:29.767Z,18.50
2018-06-29T02:11:58.081Z,18.60
2018-06-29T02:14:26.343Z,18.50
2018-06-29T02:16:54.651Z,18.60
2018-06-29T02:19:22.941Z,18.60
2018-06-29T02:21:51.197Z,18.50
2018-06-29T02:24:19.490Z,18.50
2018-06-29T02:26:47.751Z,18.50
2018-06-29T02:29:16.024Z,18.50
2018-06-29T02:31:44.295Z,18.50
2018-06-29T02:34:12.557Z,18.50
2018-06-29T02:36:40.831Z,18.40
2018-06-29T02:41:38.334Z,18.40
2018-06-29T02:44:06.690Z,18.40
2018-06-29T02:46:34.923Z,18.40
2018-06-29T02:49:03.306Z,18.40
2018-06-29T02:51:31.579Z,18.40
2018-06-29T02:53:59.879Z,18.40
2018-06-29T02:56:28.152Z,18.40
2018-06-29T02:58:56.427Z,18.40
2018-06-29T03:01:24.752Z,18.40
2018-06-29T03:03:53.041Z,18.40
2018-06-29T03:06:21.388Z,18.40
2018-06-29T03:11:17.657Z,18.50
2018-06-29T03:13:45.935Z,18.40
2018-06-29T03:16:14.211Z,18.40
2018-06-29T03:18:42.487Z,18.50
2018-06-29T03:21:10.780Z,18.50
2018-06-29T03:23:39.060Z,18.50
2018-06-29T03:26:07.370Z,18.50
2018-06-29T03:28:35.649Z,18.50
2018-06-29T03:31:03.944Z,18.50
2018-06-29T03:33:32.233Z,18.50
2018-06-29T03:36:00.525Z,18.50
2018-06-29T03:38:28.820Z,18.50
2018-06-29T03:40:57.115Z,18.50
2018-06-29T03:43:25.390Z,18.50
2018-06-29T03:45:53.664Z,18.50
2018-06-29T03:48:21.933Z,18.50
2018-06-29T03:53:18.243Z,18.50
2018-06-29T03:55:46.504Z,18.50
2018-06-29T03:58:14.757Z,18.50
2018-06-29T04:03:11.086Z,18.50
2018-06-29T04:05:39.338Z,18.60
2018-06-29T04:08:07.624Z,18.60
2018-06-29T04:10:35.863Z,18.60
2018-06-29T04:13:04.182Z,18.70
2018-06-29T04:15:32.491Z,18.80
2018-06-29T04:18:00.797Z,18.80
2018-06-29T04:20:29.077Z,18.80
2018-06-29T04:22:57.347Z,18.90
2018-06-29T04:25:25.638Z,19.00
2018-06-29T04:27:53.929Z,19.10
2018-06-29T04:30:22.197Z,19.20
2018-06-29T04:32:50.570Z,19.30
2018-06-29T04:35:18.779Z,19.30
2018-06-29T04:37:47.096Z,19.30
2018-06-29T04:40:15.431Z,19.30
2018-06-29T04:42:43.710Z,19.30
2018-06-29T04:45:11.998Z,19.30
2018-06-29T04:50:14.933Z,19.20
2018-06-29T04:52:43.197Z,19.20
2018-06-29T04:55:11.505Z,19.20
2018-06-29T04:57:39.772Z,19.20
2018-06-29T05:02:36.108Z,19.30
2018-06-29T05:05:04.486Z,19.40
2018-06-29T05:07:32.748Z,19.50
2018-06-29T05:10:01.018Z,19.60
2018-06-29T05:12:29.276Z,19.70
2018-06-29T05:14:57.574Z,19.80
2018-06-29T05:17:25.856Z,19.80
2018-06-29T05:19:54.140Z,19.90
2018-06-29T05:22:22.428Z,19.90
2018-06-29T05:24:50.699Z,19.90
2018-06-29T05:27:18.967Z,20.00
2018-06-29T05:29:47.278Z,20.10
2018-06-29T05:32:15.548Z,20.20
2018-06-29T05:34:43.845Z,20.40
2018-06-29T05:37:12.124Z,20.50
2018-06-29T05:39:40.431Z,20.60
2018-06-29T05:42:08.781Z,20.70
2018-06-29T05:44:37.044Z,20.90
2018-06-29T05:47:05.449Z,21.00
2018-06-29T05:49:34.668Z,21.10
2018-06-29T05:52:02.956Z,21.10
2018-06-29T05:54:31.226Z,21.10
2018-06-29T05:56:59.492Z,21.10
2018-06-29T05:59:27.766Z,21.00
2018-06-29T06:01:56.174Z,21.00
2018-06-29T06:04:24.444Z,20.90
2018-06-29T06:06:52.719Z,20.90
2018-06-29T06:09:21.036Z,20.90
2018-06-29T06:11:49.329Z,21.00
2018-06-29T06:19:25.940Z,21.50
2018-06-29T06:21:54.313Z,21.70
2018-06-29T06:24:22.609Z,22.00
2018-06-29T06:26:51.190Z,22.20
2018-06-29T06:29:19.540Z,22.30
2018-06-29T06:31:47.863Z,22.30
2018-06-29T06:34:16.163Z,22.00
2018-06-29T06:36:44.434Z,22.00
2018-06-29T06:39:12.727Z,21.90
2018-06-29T06:41:41.618Z,21.70
2018-06-29T06:44:09.930Z,21.60
2018-06-29T06:49:06.281Z,21.70
2018-06-29T06:51:34.552Z,21.80
2018-06-29T06:54:02.845Z,21.90
2018-06-29T06:56:31.119Z,22.00
2018-06-29T06:58:59.394Z,22.20
2018-06-29T07:01:27.684Z,22.30
2018-06-29T07:03:55.961Z,22.50
2018-06-29T07:06:24.266Z,22.60
2018-06-29T07:08:52.523Z,22.60
2018-06-29T07:11:20.792Z,22.70
2018-06-29T07:16:17.095Z,22.80
2018-06-29T07:18:45.419Z,22.90
2018-06-29T07:21:13.732Z,23.00
2018-06-29T07:23:42.051Z,23.00
2018-06-29T07:26:10.376Z,23.20
2018-06-29T07:28:38.693Z,23.30
2018-06-29T07:33:34.968Z,23.90
2018-06-29T07:36:03.314Z,24.00
2018-06-29T07:38:31.589Z,24.10
2018-06-29T07:40:59.896Z,24.10
2018-06-29T07:43:28.205Z,24.10
2018-06-29T07:45:56.500Z,24.00
2018-06-29T07:48:24.770Z,23.80
2018-06-29T07:50:53.081Z,23.70
2018-06-29T07:53:21.338Z,23.70
2018-06-29T07:55:49.712Z,23.70
2018-06-29T07:58:18.092Z,23.70
2018-06-29T08:00:46.357Z,23.70
2018-06-29T08:03:14.632Z,23.60
2018-06-29T08:05:42.943Z,23.60
2018-06-29T08:08:11.239Z,23.70
2018-06-29T08:10:39.534Z,23.60
2018-06-29T08:13:07.811Z,23.60
2018-06-29T08:15:36.071Z,23.70
2018-06-29T08:18:04.405Z,23.80
2018-06-29T08:20:32.673Z,23.90
2018-06-29T08:23:00.923Z,23.90
2018-06-29T08:25:29.199Z,24.00
2018-06-29T08:27:57.508Z,24.10
2018-06-29T08:30:25.767Z,24.20
2018-06-29T08:32:54.077Z,24.30
2018-06-29T08:35:22.391Z,24.40
2018-06-29T08:37:50.671Z,24.40
2018-06-29T08:40:18.958Z,24.50
2018-06-29T08:42:47.231Z,24.60
2018-06-29T08:45:15.549Z,24.60
2018-06-29T08:47:43.812Z,24.70
2018-06-29T08:50:12.065Z,24.90
2018-06-29T08:52:40.369Z,25.10
2018-06-29T08:55:08.881Z,25.20
2018-06-29T08:57:37.029Z,25.10
2018-06-29T09:00:06.482Z,25.10
2018-06-29T09:05:02.836Z,25.10
2018-06-29T09:07:31.063Z,24.90
2018-06-29T09:09:59.343Z,24.80
2018-06-29T09:12:27.625Z,24.60
2018-06-29T09:14:55.903Z,24.50
2018-06-29T09:17:24.199Z,24.50
2018-06-29T09:19:52.467Z,24.50
2018-06-29T09:22:20.744Z,24.50
2018-06-29T09:24:49.093Z,24.50
2018-06-29T09:27:17.350Z,24.60
2018-06-29T09:29:45.639Z,24.70
2018-06-29T09:32:13.939Z,24.90
2018-06-29T09:37:10.321Z,25.10
2018-06-29T09:39:38.611Z,25.10
2018-06-29T09:42:06.916Z,25.10
2018-06-29T09:47:03.244Z,25.10
2018-06-29T09:49:31.573Z,25.20
2018-06-29T09:51:59.836Z,25.30
2018-06-29T09:54:28.244Z,25.30
2018-06-29T09:56:56.530Z,25.40
2018-06-29T09:59:24.919Z,25.40
2018-06-29T10:01:53.199Z,25.40
2018-06-29T10:04:21.482Z,25.40
2018-06-29T10:06:49.772Z,25.40
2018-06-29T10:09:18.044Z,25.30
2018-06-29T10:11:46.370Z,25.30
2018-06-29T10:14:14.730Z,25.40
2018-06-29T10:19:10.900Z,25.50
2018-06-29T10:21:39.157Z,25.60
2018-06-29T10:24:07.525Z,25.70
2018-06-29T10:26:35.766Z,25.80
2018-06-29T10:29:04.056Z,25.80
2018-06-29T10:31:32.394Z,25.80
2018-06-29T10:34:00.680Z,25.80
2018-06-29T10:38:57.076Z,25.90
2018-06-29T10:41:25.273Z,26.00
2018-06-29T10:43:53.792Z,26.00
2018-06-29T10:46:22.074Z,26.00
2018-06-29T10:48:51.308Z,26.10
2018-06-29T10:51:19.589Z,26.10
2018-06-29T10:56:15.876Z,26.40
2018-06-29T10:58:44.252Z,26.40
2018-06-29T11:01:12.458Z,26.40
2018-06-29T11:03:40.720Z,26.40
2018-06-29T11:06:08.985Z,26.30
2018-06-29T11:08:37.428Z,26.10
2018-06-29T11:11:05.819Z,26.10
2018-06-29T11:13:34.269Z,26.20
2018-06-29T11:16:02.578Z,26.30
2018-06-29T11:18:30.926Z,26.50
2018-06-29T11:20:59.210Z,26.60
2018-06-29T11:23:27.510Z,26.70
2018-06-29T11:25:55.805Z,26.70
2018-06-29T11:28:24.102Z,26.80
2018-06-29T11:30:52.575Z,26.70
2018-06-29T11:33:20.848Z,26.80
2018-06-29T11:35:49.105Z,26.70
2018-06-29T11:38:17.420Z,26.80
2018-06-29T11:40:45.685Z,26.90
2018-06-29T11:43:14.011Z,26.90
2018-06-29T11:45:42.314Z,26.80
2018-06-29T11:53:06.787Z,26.80
2018-06-29T11:55:35.300Z,26.90
2018-06-29T11:58:03.653Z,27.00
2018-06-29T12:00:31.971Z,27.20
2018-06-29T12:05:28.219Z,27.50
2018-06-29T12:07:56.579Z,27.50
2018-06-29T12:10:24.849Z,27.20
2018-06-29T12:12:53.123Z,27.00
2018-06-29T12:15:21.474Z,26.90
2018-06-29T12:17:49.940Z,26.80
2018-06-29T12:20:18.205Z,26.80
2018-06-29T12:25:14.493Z,27.00
2018-06-29T12:27:42.808Z,27.20
2018-06-29T12:30:11.100Z,27.20
2018-06-29T12:32:39.376Z,27.20
2018-06-29T12:35:07.649Z,27.30
2018-06-29T12:40:04.000Z,27.60
2018-06-29T12:42:32.304Z,27.70
2018-06-29T12:45:00.606Z,27.80
2018-06-29T12:47:28.904Z,27.80
2018-06-29T12:49:57.205Z,27.60
2018-06-29T12:52:25.515Z,27.40
2018-06-29T12:57:21.784Z,27.30
2018-06-29T12:59:50.100Z,27.30
2018-06-29T13:02:18.321Z,27.20
2018-06-29T13:04:46.680Z,27.10
2018-06-29T13:09:43.185Z,27.60
2018-06-29T13:14:39.461Z,27.90
2018-06-29T13:17:07.807Z,27.70
2018-06-29T13:19:36.085Z,27.60
2018-06-29T13:22:04.383Z,27.50
2018-06-29T13:24:32.669Z,27.50
2018-06-29T13:29:28.967Z,27.90
2018-06-29T13:31:57.279Z,28.10
2018-06-29T13:36:54.187Z,28.50
2018-06-29T13:39:22.605Z,28.50
2018-06-29T13:41:50.845Z,28.60
2018-06-29T13:44:19.126Z,28.60
2018-06-29T13:46:47.411Z,28.40
2018-06-29T13:49:15.783Z,28.20
2018-06-29T13:51:44.067Z,28.00
2018-06-29T13:54:12.393Z,27.90
2018-06-29T13:56:40.655Z,27.90
2018-06-29T14:01:37.065Z,28.10
2018-06-29T14:04:05.333Z,28.10
2018-06-29T14:06:33.633Z,28.20
2018-06-29T14:09:01.901Z,28.20
2018-06-29T14:11:30.195Z,28.10
2018-06-29T14:13:58.481Z,28.10
2018-06-29T14:16:26.748Z,28.20
2018-06-29T14:18:55.041Z,28.20
2018-06-29T14:21:23.499Z,28.30
2018-06-29T14:23:51.747Z,28.30
2018-06-29T14:26:20.064Z,28.20
2018-06-29T14:28:48.424Z,28.10
2018-06-29T14:31:16.673Z,28.10
2018-06-29T14:33:44.977Z,28.10
2018-06-29T14:36:13.374Z,28.10
2018-06-29T14:38:41.669Z,28.00
2018-06-29T14:41:09.931Z,28.00
2018-06-29T14:46:06.267Z,27.70
2018-06-29T14:48:34.522Z,27.70
2018-06-29T14:53:30.816Z,27.70
2018-06-29T14:55:59.107Z,27.60
2018-06-29T14:58:27.377Z,27.60
2018-06-29T15:00:55.760Z,27.50
2018-06-29T15:03:24.041Z,27.50
2018-06-29T15:05:52.369Z,27.50
2018-06-29T15:08:20.675Z,27.50
2018-06-29T15:10:48.953Z,27.50
2018-06-29T15:13:17.274Z,27.60
2018-06-29T15:15:45.663Z,27.50
2018-06-29T15:18:13.911Z,27.50
2018-06-29T15:20:42.202Z,27.50
2018-06-29T15:23:10.465Z,27.60
2018-06-29T15:25:38.751Z,27.60
2018-06-29T15:28:07.036Z,27.60
2018-06-29T15:30:35.358Z,27.60
2018-06-29T15:33:03.696Z,27.60
2018-06-29T15:35:32.006Z,27.70
2018-06-29T15:38:00.368Z,27.90
2018-06-29T15:40:28.720Z,28.00
2018-06-29T15:42:57.054Z,28.10
2018-06-29T15:45:25.494Z,28.20
2018-06-29T15:47:53.840Z,28.10
2018-06-29T15:50:22.140Z,28.00
2018-06-29T15:52:50.460Z,27.90
2018-06-29T15:55:18.795Z,27.70
2018-06-29T15:57:47.044Z,27.50
2018-06-29T16:00:15.316Z,27.40
2018-06-29T16:02:43.612Z,27.30
2018-06-29T16:05:11.920Z,27.40
2018-06-29T16:07:40.216Z,27.40
2018-06-29T16:10:08.564Z,27.50
2018-06-29T16:12:36.866Z,27.60
2018-06-29T16:15:05.304Z,27.60
2018-06-29T16:17:33.586Z,27.60
2018-06-29T16:20:01.900Z,27.70
2018-06-29T16:22:30.250Z,27.60
2018-06-29T16:24:58.548Z,27.70
2018-06-29T16:27:26.850Z,27.80
2018-06-29T16:29:55.154Z,27.80
2018-06-29T16:32:23.440Z,27.80
2018-06-29T16:34:51.724Z,27.80
2018-06-29T16:37:20.016Z,27.80
2018-06-29T16:42:16.326Z,27.80
2018-06-29T16:44:44.695Z,27.90
2018-06-29T16:47:12.945Z,27.90
2018-06-29T16:52:09.384Z,28.10
2018-06-29T16:54:37.668Z,28.30
2018-06-29T16:57:05.960Z,28.50
2018-06-29T16:59:34.278Z,28.70
2018-06-29T17:02:02.568Z,28.80
2018-06-29T17:04:30.869Z,28.90
2018-06-29T17:06:59.126Z,28.80
2018-06-29T17:09:27.393Z,28.60
2018-06-29T17:11:55.788Z,28.80
2018-06-29T17:14:24.536Z,29.20
2018-06-29T17:16:52.832Z,29.70
2018-06-29T17:19:21.184Z,30.00
2018-06-29T17:21:49.502Z,30.20
2018-06-29T17:24:17.806Z,30.50
2018-06-29T17:26:46.117Z,30.60
2018-06-29T17:29:14.391Z,30.90
2018-06-29T17:31:42.688Z,31.10
2018-06-29T17:39:09.194Z,31.50
2018-06-29T17:41:37.680Z,31.50
2018-06-29T17:44:05.960Z,31.90
2018-06-29T17:46:34.437Z,32.10
2018-06-29T17:49:02.625Z,32.10
2018-06-29T17:51:30.894Z,32.10
2018-06-29T17:56:27.199Z,32.00
2018-06-29T17:58:55.522Z,31.80
2018-06-29T18:01:23.844Z,31.80
2018-06-29T18:03:52.108Z,31.70
2018-06-29T18:06:20.386Z,31.60
2018-06-29T18:08:48.662Z,31.50
2018-06-29T18:11:16.960Z,31.30
2018-06-29T18:13:45.271Z,31.10
2018-06-29T18:16:13.697Z,30.60
2018-06-29T18:18:41.901Z,30.20
2018-06-29T18:23:38.200Z,29.40
2018-06-29T18:26:06.529Z,29.10
2018-06-29T18:28:34.917Z,28.80
2018-06-29T18:31:03.218Z,28.50
2018-06-29T18:33:31.603Z,28.20
2018-06-29T18:35:59.943Z,28.00
2018-06-29T18:38:28.205Z,27.80
2018-06-29T18:40:56.579Z,27.50
2018-06-29T18:43:24.861Z,27.30
2018-06-29T18:45:53.231Z,27.20
2018-06-29T18:48:21.537Z,27.00
2018-06-29T18:53:17.869Z,26.70
2018-06-29T18:55:46.120Z,26.60
2018-06-29T18:58:14.451Z,26.40
2018-06-29T19:00:42.745Z,26.30
2018-06-29T19:05:39.047Z,26.00
2018-06-29T19:08:07.367Z,25.90
2018-06-29T19:10:35.651Z,25.70
2018-06-29T19:13:03.963Z,25.60
2018-06-29T19:20:28.474Z,25.20
2018-06-29T19:22:56.792Z,25.00
2018-06-29T19:25:25.220Z,24.90
2018-06-29T19:27:53.615Z,24.80
2018-06-29T19:30:21.987Z,24.60
2018-06-29T19:32:50.418Z,24.50
2018-06-29T19:35:18.705Z,24.40
2018-06-29T19:40:15.491Z,24.10
2018-06-29T19:42:43.768Z,24.00
2018-06-29T19:45:12.120Z,23.90
2018-06-29T19:47:40.408Z,23.80
2018-06-29T19:50:08.859Z,23.80
2018-06-29T19:55:05.356Z,23.50
2018-06-29T19:57:33.629Z,23.40
2018-06-29T20:00:01.937Z,23.30
2018-06-29T20:04:58.469Z,23.20
2018-06-29T20:07:27.269Z,23.10
2018-06-29T20:09:55.646Z,23.10
2018-06-29T20:12:23.981Z,23.00
2018-06-29T20:14:52.310Z,23.00
2018-06-29T20:17:20.604Z,22.90
2018-06-29T20:19:48.910Z,22.70
2018-06-29T20:24:45.191Z,22.60
2018-06-29T20:27:13.503Z,22.50
2018-06-29T20:29:41.813Z,22.40
2018-06-29T20:32:10.099Z,22.40
2018-06-29T20:34:38.387Z,22.30
2018-06-29T20:39:34.681Z,22.30
2018-06-29T20:42:03.009Z,22.20
2018-06-29T20:44:31.325Z,22.30
2018-06-29T20:51:55.727Z,22.20
2018-06-29T20:54:24.086Z,22.10
2018-06-29T20:56:52.375Z,22.10
2018-06-29T21:04:16.709Z,22.10
2018-06-29T21:06:45.040Z,22.00
2018-06-29T21:09:13.517Z,22.00
2018-06-29T21:11:42.697Z,21.90
2018-06-29T21:14:11.907Z,21.90
2018-06-29T21:16:40.194Z,21.80
2018-06-29T21:19:08.512Z,21.70
2018-06-29T21:21:36.815Z,21.60
2018-06-29T21:24:05.125Z,21.50
2018-06-29T21:26:33.479Z,21.50
2018-06-29T21:29:01.746Z,21.40
2018-06-29T21:31:30.311Z,21.30
2018-06-29T21:33:58.619Z,21.30
2018-06-29T21:36:26.960Z,21.20
2018-06-29T21:38:55.269Z,21.10
2018-06-29T21:41:23.564Z,21.00
2018-06-29T21:43:51.843Z,20.90
2018-06-29T21:46:20.111Z,20.80
2018-06-29T21:51:16.419Z,20.80
2018-06-29T21:53:44.733Z,20.70
2018-06-29T21:56:13.016Z,20.60
2018-06-29T21:58:41.281Z,20.60
2018-06-29T22:01:09.641Z,20.50
2018-06-29T22:03:37.945Z,20.50
2018-06-29T22:06:06.238Z,20.40
2018-06-29T22:08:34.551Z,20.40
2018-06-29T22:13:30.838Z,20.30
2018-06-29T22:15:59.112Z,20.30
2018-06-29T22:18:27.426Z,20.30
2018-06-29T22:20:55.739Z,20.20
2018-06-29T22:23:24.012Z,20.20
2018-06-29T22:25:52.304Z,20.20
2018-06-29T22:28:20.644Z,20.30
2018-06-29T22:30:48.930Z,20.30
2018-06-29T22:33:17.220Z,20.20
2018-06-29T22:35:45.487Z,20.20
2018-06-29T22:38:13.792Z,20.10
2018-06-29T22:40:42.102Z,20.10
2018-06-29T22:43:10.400Z,20.00
2018-06-29T22:48:06.755Z,19.90
2018-06-29T22:50:35.017Z,19.90
2018-06-29T22:53:03.372Z,19.80
2018-06-29T22:55:31.660Z,19.80
2018-06-29T22:57:59.944Z,19.70
2018-06-29T23:02:59.811Z,19.60
2018-06-29T23:05:28.122Z,19.50
2018-06-29T23:07:56.404Z,19.50
2018-06-29T23:10:24.718Z,19.50
2018-06-29T23:12:52.990Z,19.40
2018-06-29T23:15:21.297Z,19.40
2018-06-29T23:17:49.604Z,19.30
2018-06-29T23:20:17.875Z,19.30
2018-06-29T23:25:14.156Z,19.20
2018-06-29T23:30:10.451Z,19.20
2018-06-29T23:32:38.752Z,19.10
2018-06-29T23:35:07.095Z,19.10
2018-06-29T23:40:03.460Z,19.10
2018-06-29T23:42:31.752Z,19.10
2018-06-29T23:45:00.043Z,19.10
2018-06-29T23:47:28.452Z,19.10
2018-06-29T23:49:56.736Z,19.10
2018-06-29T23:52:25.053Z,19.10
2018-06-29T23:54:53.345Z,19.10
2018-06-29T23:57:21.615Z,19.10
2018-06-29T23:59:49.912Z,19.00
